Flight Track Log - Related Links

Times and Time Zones

All times are in EDT time to prevent confusion due to time zone crossing. See the EJA929 flight status page for this flight to view local times or setup timezone preferences in your user account.

Time Position Orientation Groundspeed Altitude Reporting Facility
EDT Latitude Longitude Course Direction KTS MPH feet Rate Location/Type
Sun 03:29:09 PM 37.7781 -118.6328 66° East 320 368 17,500  Level Oakland Center
Sun 03:30:11 PM 37.8381 -118.5508 47° Northeast 333 383 19,600 2,049 Climbing Oakland Center
Sun 03:31:12 PM 37.9300 -118.5681 352° North 331 381 21,700 1,561 Climbing Oakland Center
Sun 03:32:00 PM 37.6484 -118.4995 345° North  Level FlightAware Approximate
Sun 03:32:14 PM 38.0267 -118.6111 341° North 360 414 22,800  Level Oakland Center
Sun 03:33:00 PM 37.7639 -118.5674 336° Northwest  Level FlightAware Approximate
Sun 03:33:15 PM 38.1453 -118.6647 340° North 408 470 23,700  Level Oakland Center
Sun 03:34:16 PM 38.2622 -118.7183 340° North 440 506 24,300 683 Climbing Oakland Center
Sun 03:35:18 PM 38.3844 -118.7758 340° North 462 532 25,100 732 Climbing Oakland Center
Sun 03:36:19 PM 38.5100 -118.8342 340° North 477 549 25,800 885 Climbing Oakland Center
Sun 03:37:20 PM 38.6372 -118.8931 340° North 484 557 26,900 1,073 Climbing Oakland Center
Sun 03:38:22 PM 38.7625 -118.9528 340° North 480 552 28,000 1,073 Climbing Oakland Center
Sun 03:39:23 PM 38.8903 -119.0117 340° North 484 557 29,100 1,180 Climbing Oakland Center
Sun 03:40:24 PM 39.0464 -119.0844 340° North 492 566 30,400 1,268 Climbing Oakland Center
Sun 03:41:26 PM 39.1781 -119.1464 340° North 498 573 31,700 1,366 Climbing Oakland Center
Sun 03:42:27 PM 39.3086 -119.2075 340° North 494 568 33,200 1,366 Climbing Oakland Center
Sun 03:43:29 PM 39.4419 -119.2708 340° North 501 577 34,500 1,463 Climbing Oakland Center
Sun 03:44:30 PM 39.5739 -119.3333 340° North 502 578 36,200 1,426 Climbing Oakland Center
Sun 03:45:31 PM 39.7081 -119.3969 340° North 507 583 37,400 1,122 Climbing Oakland Center
Sun 03:46:33 PM 39.8453 -119.4628 340° North 520 598 38,500 1,024 Climbing Oakland Center
Sun 03:47:34 PM 39.9839 -119.5292 340° North 528 608 39,500 787 Climbing Oakland Center
Sun 03:48:35 PM 40.1244 -119.5969 340° North 535 616 40,100 293 Climbing Oakland Center
Sun 03:49:37 PM 40.2669 -119.6664 340° North 543 625 40,100  Level Oakland Center
Sun 03:50:38 PM 40.4125 -119.7364 340° North 554 638 40,100  Level Oakland Center
Sun 03:51:39 PM 40.5767 -119.8186 339° North 552 635 40,100  Level Oakland Center
Sun 03:52:41 PM 40.7200 -119.8900 339° North 553 636 40,100 -49 Level Oakland Center
Sun 03:53:42 PM 40.8639 -119.9597 340° North 553 636 40,000  Descending Oakland Center
Sun 03:54:20 PM 40.9517 -120.0042 339° North 553 636 40,100 61 Climbing Seattle Center
Sun 03:55:21 PM 41.0964 -120.0750 340° North 556 640 40,100  Level Seattle Center
Sun 03:56:22 PM 41.2394 -120.1489 339° North 554 638 40,100  Level Seattle Center
Sun 03:57:23 PM 41.3847 -120.2208 340° North 557 641 40,100  Level Seattle Center
Sun 03:58:24 PM 41.5292 -120.2939 339° North 559 643 40,100 -49 Level Seattle Center
Sun 03:59:25 PM 41.6739 -120.3672 339° North 558 642 40,000  Descending Seattle Center
Sun 04:00:26 PM 41.8497 -120.4575 339° North 566 651 40,100  Climbing Seattle Center
Sun 04:01:27 PM 41.9950 -120.5308 339° North 563 648 40,000  Descending Seattle Center
Sun 04:02:28 PM 42.1397 -120.6053 339° North 560 644 40,100 49 Climbing Seattle Center
Sun 04:03:30 PM 42.2822 -120.6794 339° North 554 638 40,100  Level Seattle Center
Sun 04:04:31 PM 42.4250 -120.7539 339° North 554 638 40,100 -49 Level Seattle Center
Sun 04:05:32 PM 42.5700 -120.8297 339° North 561 646 40,000  Descending Seattle Center
Sun 04:06:33 PM 42.7153 -120.9069 339° North 562 647 40,100 49 Climbing Seattle Center
Sun 04:07:34 PM 42.8597 -120.9811 339° North 559 643 40,100  Level Seattle Center
Sun 04:08:35 PM 43.0042 -121.0592 338° Northwest 562 647 40,100 -49 Level Seattle Center
Sun 04:09:36 PM 43.1800 -121.1550 338° Northwest 568 654 40,000  Descending Seattle Center
Sun 04:10:37 PM 43.3236 -121.2297 339° North 557 641 40,100 49 Climbing Seattle Center
Sun 04:11:38 PM 43.4681 -121.3069 339° North 558 642 40,100  Level Seattle Center
Sun 04:12:39 PM 43.6139 -121.3903 338° Northwest 569 655 40,100 -49 Level Seattle Center
Sun 04:13:40 PM 43.7586 -121.4675 339° North 562 647 40,000  Descending Seattle Center
Sun 04:14:41 PM 43.8939 -121.5378 339° North 565 650 40,100 49 Climbing Seattle Center
Sun 04:15:42 PM 44.0686 -121.6353 338° Northwest 564 649 40,100 -49 Level Seattle Center
Sun 04:16:43 PM 44.2158 -121.7175 338° Northwest 568 654 40,000  Descending Seattle Center
Sun 04:17:45 PM 44.3625 -121.7994 338° Northwest 567 652 40,100 49 Climbing Seattle Center
Sun 04:18:46 PM 44.5100 -121.8797 339° North 568 654 40,100  Level Seattle Center
Sun 04:19:47 PM 44.6511 -121.9583 338° Northwest 570 656 40,100  Level Seattle Center
Sun 04:20:48 PM 44.7972 -122.0422 338° Northwest 569 655 40,100 -49 Level Seattle Center
Sun 04:21:49 PM 44.9517 -122.1322 338° Northwest 562 647 40,000 -49 Descending Seattle Center
Sun 04:22:50 PM 45.0989 -122.2153 338° Northwest 573 659 40,000  Level Seattle Center
Sun 04:23:51 PM 45.2486 -122.3017 338° Northwest 582 670 40,000 -443 Level Seattle Center
Sun 04:24:52 PM 45.3956 -122.3878 338° Northwest 580 667 39,100 -1,180 Descending Seattle Center
Sun 04:25:53 PM 45.5394 -122.4697 338° Northwest 567 652 37,600 -1,475 Descending Seattle Center
Sun 04:26:54 PM 45.6878 -122.5564 338° Northwest 576 663 36,100 -1,623 Descending Seattle Center
Sun 04:27:55 PM 45.8803 -122.6236 346° North 604 695 34,300 -1,672 Descending Seattle Center
Sun 04:28:56 PM 46.0431 -122.6653 350° North 598 688 32,700 -1,033 Descending Seattle Center
Sun 04:29:57 PM 46.2014 -122.7044 350° North 582 670 32,200 -1,918 Descending Seattle Center
Sun 04:30:58 PM 46.3619 -122.7483 349° North 556 640 28,800 -2,902 Descending Seattle Center
Sun 04:31:59 PM 46.5047 -122.7856 350° North 530 610 26,300 -2,557 Descending Seattle Center
Sun 04:33:00 PM 46.6431 -122.8192 351° North 512 589 23,600 -2,788 Descending Seattle Center
Sun 04:33:38 PM 46.7275 -122.8400 350° North 496 571 21,700 -2,679 Descending Seattle Center
Sun 04:34:52 PM 46.8886 -122.8803 350° North 468 539 18,600 -2,328 Descending Seattle Center
Sun 04:35:52 PM 47.0036 -122.8447 12° North 412 474 16,500 -2,132 Descending Seattle Center
Sun 04:36:53 PM 47.0931 -122.7414 38° Northeast 365 420 14,300 -1,820 Descending Seattle Center
Sun 04:37:54 PM 47.1656 -122.6503 40° Northeast 333 383 12,800 -1,475 Descending Seattle Center
Sun 04:38:55 PM 47.2331 -122.5650 41° Northeast 310 357 11,300 -1,475 Descending Seattle Center
Sun 04:39:56 PM 47.2978 -122.4872 39° Northeast 301 346 9,800 -1,433 Descending Seattle Center
Sun 04:41:09 PM 47.3961 -122.4475 15° North 304 350 8,100 -1,075 Descending Seattle Center
Sun 04:42:10 PM 47.4708 -122.4378 North 262 302 7,400 -1,091 Descending Seattle Center
Sun 04:42:59 PM 47.5275 -122.4825 332° Northwest 259 298 6,100 -1,145 Descending Seattle Center
Sun 04:44:00 PM 47.5800 -122.5228 333° Northwest 205 236 5,300 -1,131 Descending Seattle Center
Sun 04:45:01 PM 47.6331 -122.5394 348° North 196 226 3,800 -1,082 Descending Seattle Center
Sun 04:46:02 PM 47.6844 -122.5147 18° North 201 231 3,100 -344 Descending Seattle Center
Sun 04:47:03 PM 47.6881 -122.4403 86° East 207 238 3,100 -298 Level Seattle Center
Sun 04:48:03 PM 47.6450 -122.4014 149° Southeast 180 207 2,500 -711 Descending Seattle Center
Sun 04:49:18 PM 47.5994 -122.3619 150° Southeast 136 157 1,500 -750 Descending Seattle Center
Sun 04:50:19 PM 47.5689 -122.3367 151° Southeast 127 146 800 -667 Descending Seattle Center
Sun 04:51:06 PM 47.5489 -122.3200 151° Southeast 135 155 300 -638 Descending Seattle Center

Login

Don't have an account? Register now (free) for customized features, flight alerts, and more!